sensor_id;sensor_type;location;lat;lon;timestamp;pressure;altitude;pressure_sealevel;temperature;humidity
12949;BME280;6539;49.476;8.484;2023-05-19T00:00:12;101127.91;;;16.10;41.38
12949;BME280;6539;49.476;8.484;2023-05-19T00:02:40;101128.69;;;16.10;41.38
12949;BME280;6539;49.476;8.484;2023-05-19T00:05:09;101128.34;;;16.08;41.29
12949;BME280;6539;49.476;8.484;2023-05-19T00:07:38;101126.41;;;16.05;41.16
12949;BME280;6539;49.476;8.484;2023-05-19T00:10:05;101128.81;;;16.03;41.28
12949;BME280;6539;49.476;8.484;2023-05-19T00:12:31;101123.28;;;16.03;41.22
12949;BME280;6539;49.476;8.484;2023-05-19T00:14:57;101138.69;;;16.04;41.18
12949;BME280;6539;49.476;8.484;2023-05-19T00:17:24;101125.22;;;16.06;41.21
12949;BME280;6539;49.476;8.484;2023-05-19T00:19:52;101128.81;;;16.03;41.42
12949;BME280;6539;49.476;8.484;2023-05-19T00:22:19;101125.22;;;16.06;41.48
12949;BME280;6539;49.476;8.484;2023-05-19T00:24:45;101126.03;;;16.03;41.56
12949;BME280;6539;49.476;8.484;2023-05-19T00:27:11;101119.72;;;16.02;41.73
12949;BME280;6539;49.476;8.484;2023-05-19T00:29:39;101126.16;;;15.96;41.80
12949;BME280;6539;49.476;8.484;2023-05-19T00:32:07;101119.91;;;15.92;42.02
12949;BME280;6539;49.476;8.484;2023-05-19T00:34:32;101124.38;;;15.86;42.11
12949;BME280;6539;49.476;8.484;2023-05-19T00:36:58;101128.84;;;15.80;42.38
12949;BME280;6539;49.476;8.484;2023-05-19T00:39:24;101124.88;;;15.81;42.34
12949;BME280;6539;49.476;8.484;2023-05-19T00:41:50;101130.41;;;15.81;42.25
12949;BME280;6539;49.476;8.484;2023-05-19T00:44:18;101131.66;;;15.76;42.42
12949;BME280;6539;49.476;8.484;2023-05-19T00:46:43;101127.78;;;15.74;42.29
12949;BME280;6539;49.476;8.484;2023-05-19T00:49:09;101123.44;;;15.73;42.50
12949;BME280;6539;49.476;8.484;2023-05-19T00:51:35;101121.88;;;15.72;42.35
12949;BME280;6539;49.476;8.484;2023-05-19T00:54:02;101119.94;;;15.69;42.48
12949;BME280;6539;49.476;8.484;2023-05-19T00:56:32;101122.03;;;15.61;42.58
12949;BME280;6539;49.476;8.484;2023-05-19T00:58:58;101122.84;;;15.62;42.56
12949;BME280;6539;49.476;8.484;2023-05-19T01:01:25;101120.56;;;15.57;42.73
12949;BME280;6539;49.476;8.484;2023-05-19T01:03:52;101113.09;;;15.54;42.72
12949;BME280;6539;49.476;8.484;2023-05-19T01:06:18;101113.88;;;15.54;42.68
12949;BME280;6539;49.476;8.484;2023-05-19T01:08:46;101108.34;;;15.54;42.78
12949;BME280;6539;49.476;8.484;2023-05-19T01:11:14;101112.81;;;15.48;42.81
12949;BME280;6539;49.476;8.484;2023-05-19T01:13:43;101108.03;;;15.49;42.87
12949;BME280;6539;49.476;8.484;2023-05-19T01:26:23;101094.41;;;15.35;43.47
12949;BME280;6539;49.476;8.484;2023-05-19T01:32:03;101103.16;;;15.33;43.76
12949;BME280;6539;49.476;8.484;2023-05-19T01:34:33;101098.91;;;15.25;43.94
12949;BME280;6539;49.476;8.484;2023-05-19T01:37:04;101103.69;;;15.24;44.04
12949;BME280;6539;49.476;8.484;2023-05-19T01:39:34;101108.44;;;15.24;43.91
12949;BME280;6539;49.476;8.484;2023-05-19T01:42:02;101099.41;;;15.20;44.23
12949;BME280;6539;49.476;8.484;2023-05-19T01:44:28;101106.56;;;15.17;44.46
12949;BME280;6539;49.476;8.484;2023-05-19T01:46:56;101104.63;;;15.14;44.48
12949;BME280;6539;49.476;8.484;2023-05-19T01:49:22;101108.22;;;15.11;44.62
12949;BME280;6539;49.476;8.484;2023-05-19T01:51:48;101105.47;;;15.11;44.75
12949;BME280;6539;49.476;8.484;2023-05-19T01:54:16;101108.59;;;15.13;44.73
12949;BME280;6539;49.476;8.484;2023-05-19T02:00:23;101112.13;;;15.14;44.65
12949;BME280;6539;49.476;8.484;2023-05-19T02:03:11;101121.28;;;15.11;44.83
12949;BME280;6539;49.476;8.484;2023-05-19T02:06:17;101117.41;;;15.05;44.99
12949;BME280;6539;49.476;8.484;2023-05-19T02:11:40;101118.66;;;15.00;45.11
12949;BME280;6539;49.476;8.484;2023-05-19T02:14:18;101119.81;;;15.03;45.05
12949;BME280;6539;49.476;8.484;2023-05-19T02:16:47;101117.06;;;15.03;45.05
12949;BME280;6539;49.476;8.484;2023-05-19T02:19:25;101122.25;;;14.97;45.21
12949;BME280;6539;49.476;8.484;2023-05-19T02:21:51;101123.09;;;14.94;45.12
12949;BME280;6539;49.476;8.484;2023-05-19T02:24:18;101121.09;;;14.95;45.16
12949;BME280;6539;49.476;8.484;2023-05-19T02:26:51;101119.94;;;14.92;45.40
12949;BME280;6539;49.476;8.484;2023-05-19T02:29:23;101126.34;;;14.89;45.58
12949;BME280;6539;49.476;8.484;2023-05-19T02:31:48;101124.44;;;14.83;45.87
12949;BME280;6539;49.476;8.484;2023-05-19T02:34:14;101126.78;;;14.84;45.97
12949;BME280;6539;49.476;8.484;2023-05-19T02:36:41;101129.19;;;14.82;46.08
12949;BME280;6539;49.476;8.484;2023-05-19T02:39:11;101128.41;;;14.82;46.20
12949;BME280;6539;49.476;8.484;2023-05-19T02:41:40;101117.47;;;14.75;46.78
12949;BME280;6539;49.476;8.484;2023-05-19T02:44:06;101115.47;;;14.75;46.72
12949;BME280;6539;49.476;8.484;2023-05-19T02:46:32;101114.00;;;14.67;47.00
12949;BME280;6539;49.476;8.484;2023-05-19T02:48:58;101108.91;;;14.66;47.21
12949;BME280;6539;49.476;8.484;2023-05-19T02:51:26;101108.56;;;14.60;47.26
12949;BME280;6539;49.476;8.484;2023-05-19T02:53:52;101112.09;;;14.61;47.52
12949;BME280;6539;49.476;8.484;2023-05-19T02:56:21;101106.94;;;14.63;47.45
12949;BME280;6539;49.476;8.484;2023-05-19T02:58:49;101101.13;;;14.57;47.63
12949;BME280;6539;49.476;8.484;2023-05-19T03:01:15;101106.63;;;14.57;47.39
12949;BME280;6539;49.476;8.484;2023-05-19T03:03:43;101105.13;;;14.52;47.55
12949;BME280;6539;49.476;8.484;2023-05-19T03:06:09;101103.97;;;14.50;47.65
12949;BME280;6539;49.476;8.484;2023-05-19T03:08:35;101103.66;;;14.44;47.84
12949;BME280;6539;49.476;8.484;2023-05-19T03:11:02;101101.34;;;14.39;47.75
12949;BME280;6539;49.476;8.484;2023-05-19T03:13:30;101107.31;;;14.34;47.97
12949;BME280;6539;49.476;8.484;2023-05-19T03:15:56;101108.09;;;14.35;47.97
12949;BME280;6539;49.476;8.484;2023-05-19T03:18:26;101104.59;;;14.31;47.96
12949;BME280;6539;49.476;8.484;2023-05-19T03:20:54;101110.13;;;14.31;48.08
12949;BME280;6539;49.476;8.484;2023-05-19T03:23:23;101107.38;;;14.31;47.95
12949;BME280;6539;49.476;8.484;2023-05-19T03:25:48;101103.03;;;14.30;48.29
12949;BME280;6539;49.476;8.484;2023-05-19T03:28:18;101101.09;;;14.23;48.22
12949;BME280;6539;49.476;8.484;2023-05-19T03:30:44;101108.25;;;14.21;48.40
12949;BME280;6539;49.476;8.484;2023-05-19T03:33:10;101109.00;;;14.25;48.10
12949;BME280;6539;49.476;8.484;2023-05-19T03:35:36;101105.13;;;14.19;48.72
12949;BME280;6539;49.476;8.484;2023-05-19T03:38:04;101102.38;;;14.19;48.51
12949;BME280;6539;49.476;8.484;2023-05-19T03:40:32;101108.31;;;14.14;48.59
12949;BME280;6539;49.476;8.484;2023-05-19T03:42:58;101113.13;;;14.10;48.84
12949;BME280;6539;49.476;8.484;2023-05-19T03:45:25;101114.66;;;14.11;48.63
12949;BME280;6539;49.476;8.484;2023-05-19T03:47:51;101115.44;;;14.11;48.76
12949;BME280;6539;49.476;8.484;2023-05-19T03:50:19;101119.81;;;14.09;48.82
12949;BME280;6539;49.476;8.484;2023-05-19T03:52:47;101119.44;;;14.07;49.01
12949;BME280;6539;49.476;8.484;2023-05-19T03:55:13;101120.72;;;13.99;49.24
12949;BME280;6539;49.476;8.484;2023-05-19T03:57:39;101122.25;;;14.03;49.20
12949;BME280;6539;49.476;8.484;2023-05-19T04:00:09;101128.56;;;14.04;49.02
12949;BME280;6539;49.476;8.484;2023-05-19T04:02:38;101123.78;;;14.08;49.05
12949;BME280;6539;49.476;8.484;2023-05-19T04:05:05;101112.38;;;14.02;49.29
12949;BME280;6539;49.476;8.484;2023-05-19T04:07:34;101115.94;;;14.03;49.48
12949;BME280;6539;49.476;8.484;2023-05-19T04:10:06;101121.50;;;13.99;49.42
12949;BME280;6539;49.476;8.484;2023-05-19T04:12:34;101118.00;;;13.95;49.51
12949;BME280;6539;49.476;8.484;2023-05-19T04:15:00;101114.81;;;13.97;49.70
12949;BME280;6539;49.476;8.484;2023-05-19T04:17:26;101121.22;;;13.90;50.02
12949;BME280;6539;49.476;8.484;2023-05-19T04:19:53;101117.28;;;13.88;49.95
12949;BME280;6539;49.476;8.484;2023-05-19T04:22:18;101118.06;;;13.88;49.75
12949;BME280;6539;49.476;8.484;2023-05-19T04:24:47;101125.19;;;13.86;49.65
12949;BME280;6539;49.476;8.484;2023-05-19T04:27:15;101127.91;;;13.89;50.01
12949;BME280;6539;49.476;8.484;2023-05-19T04:29:42;101125.13;;;13.93;49.80
12949;BME280;6539;49.476;8.484;2023-05-19T04:32:08;101122.00;;;13.91;49.66
12949;BME280;6539;49.476;8.484;2023-05-19T04:34:35;101129.13;;;13.88;49.74
12949;BME280;6539;49.476;8.484;2023-05-19T04:37:09;101133.78;;;13.95;49.55
12949;BME280;6539;49.476;8.484;2023-05-19T04:39:35;101138.19;;;13.89;49.75
12949;BME280;6539;49.476;8.484;2023-05-19T04:42:06;101131.47;;;13.90;49.70
12949;BME280;6539;49.476;8.484;2023-05-19T04:44:33;101136.53;;;13.95;49.87
12949;BME280;6539;49.476;8.484;2023-05-19T04:47:03;101140.09;;;13.95;49.71
12949;BME280;6539;49.476;8.484;2023-05-19T04:49:36;101145.22;;;13.93;49.69
12949;BME280;6539;49.476;8.484;2023-05-19T04:52:09;101141.22;;;13.98;49.73
12949;BME280;6539;49.476;8.484;2023-05-19T04:54:38;101141.28;;;13.94;49.74
12949;BME280;6539;49.476;8.484;2023-05-19T04:57:05;101145.53;;;14.02;49.32
12949;BME280;6539;49.476;8.484;2023-05-19T04:59:31;101146.31;;;14.03;49.37
12949;BME280;6539;49.476;8.484;2023-05-19T05:01:57;101141.94;;;14.05;49.29
12949;BME280;6539;49.476;8.484;2023-05-19T05:04:25;101146.31;;;14.03;49.46
12949;BME280;6539;49.476;8.484;2023-05-19T05:06:51;101144.34;;;14.03;49.43
12949;BME280;6539;49.476;8.484;2023-05-19T05:09:17;101147.03;;;14.10;49.39
12949;BME280;6539;49.476;8.484;2023-05-19T05:11:44;101140.16;;;14.29;53.27
12949;BME280;6539;49.476;8.484;2023-05-19T05:14:13;101142.91;;;14.29;49.73
12949;BME280;6539;49.476;8.484;2023-05-19T05:16:44;101145.47;;;14.46;53.48
12949;BME280;6539;49.476;8.484;2023-05-19T05:19:14;101139.38;;;14.59;51.94
12949;BME280;6539;49.476;8.484;2023-05-19T05:21:40;101148.00;;;14.64;49.21
12949;BME280;6539;49.476;8.484;2023-05-19T05:24:09;101147.34;;;14.83;51.03
12949;BME280;6539;49.476;8.484;2023-05-19T05:26:35;101149.81;;;15.04;53.25
12949;BME280;6539;49.476;8.484;2023-05-19T05:29:02;101152.00;;;15.16;50.14
12949;BME280;6539;49.476;8.484;2023-05-19T05:31:28;101148.66;;;15.28;50.96
12949;BME280;6539;49.476;8.484;2023-05-19T05:33:54;101140.00;;;15.26;47.85
12949;BME280;6539;49.476;8.484;2023-05-19T05:36:22;101146.63;;;15.33;47.35
12949;BME280;6539;49.476;8.484;2023-05-19T05:38:50;101147.44;;;15.29;46.80
12949;BME280;6539;49.476;8.484;2023-05-19T05:41:16;101142.41;;;15.24;46.88
12949;BME280;6539;49.476;8.484;2023-05-19T05:43:46;101139.16;;;15.29;49.00
12949;BME280;6539;49.476;8.484;2023-05-19T05:46:12;101141.63;;;15.24;47.05
12949;BME280;6539;49.476;8.484;2023-05-19T05:48:38;101140.22;;;15.36;47.80
12949;BME280;6539;49.476;8.484;2023-05-19T05:51:07;101144.25;;;15.58;51.60
12949;BME280;6539;49.476;8.484;2023-05-19T05:53:41;101133.25;;;15.77;48.97
12949;BME280;6539;49.476;8.484;2023-05-19T05:56:10;101134.22;;;16.10;51.82
12949;BME280;6539;49.476;8.484;2023-05-19T05:58:38;101133.19;;;16.24;48.01
12949;BME280;6539;49.476;8.484;2023-05-19T06:01:05;101131.47;;;16.10;45.52
12949;BME280;6539;49.476;8.484;2023-05-19T06:03:42;101131.81;;;16.12;45.44
12949;BME280;6539;49.476;8.484;2023-05-19T06:06:10;101124.13;;;16.20;46.14
12949;BME280;6539;49.476;8.484;2023-05-19T06:08:39;101129.75;;;16.36;46.20
12949;BME280;6539;49.476;8.484;2023-05-19T06:11:10;101128.50;;;16.60;46.49
12949;BME280;6539;49.476;8.484;2023-05-19T06:13:38;101131.09;;;16.67;44.19
12949;BME280;6539;49.476;8.484;2023-05-19T06:16:06;101131.91;;;17.03;44.48
12949;BME280;6539;49.476;8.484;2023-05-19T06:18:34;101138.84;;;17.11;43.97
12949;BME280;6539;49.476;8.484;2023-05-19T06:21:00;101132.59;;;17.23;44.75
12949;BME280;6539;49.476;8.484;2023-05-19T06:23:26;101136.50;;;17.26;42.54
12949;BME280;6539;49.476;8.484;2023-05-19T06:25:56;101137.63;;;17.28;41.82
12949;BME280;6539;49.476;8.484;2023-05-19T06:28:22;101139.28;;;17.26;42.14
12949;BME280;6539;49.476;8.484;2023-05-19T06:30:50;101137.88;;;17.34;42.43
12949;BME280;6539;49.476;8.484;2023-05-19T06:33:16;101134.28;;;17.53;42.19
12949;BME280;6539;49.476;8.484;2023-05-19T06:35:41;101134.88;;;17.77;41.24
12949;BME280;6539;49.476;8.484;2023-05-19T06:38:10;101140.59;;;18.14;43.92
12949;BME280;6539;49.476;8.484;2023-05-19T06:40:35;101142.03;;;18.35;42.78
12949;BME280;6539;49.476;8.484;2023-05-19T06:43:06;101139.63;;;18.50;39.62
12949;BME280;6539;49.476;8.484;2023-05-19T06:45:32;101140.81;;;18.77;38.35
12949;BME280;6539;49.476;8.484;2023-05-19T06:48:00;101134.91;;;19.13;37.50
12949;BME280;6539;49.476;8.484;2023-05-19T06:50:29;101138.72;;;19.44;36.94
12949;BME280;6539;49.476;8.484;2023-05-19T06:52:54;101138.00;;;19.65;36.57
12949;BME280;6539;49.476;8.484;2023-05-19T06:55:24;101135.06;;;19.82;36.28
12949;BME280;6539;49.476;8.484;2023-05-19T06:57:52;101135.72;;;19.86;36.43
12949;BME280;6539;49.476;8.484;2023-05-19T07:00:22;101128.84;;;19.99;36.18
12949;BME280;6539;49.476;8.484;2023-05-19T07:02:47;101135.06;;;20.16;36.04
12949;BME280;6539;49.476;8.484;2023-05-19T07:05:13;101128.34;;;20.26;35.58
12949;BME280;6539;49.476;8.484;2023-05-19T07:07:39;101128.00;;;20.24;35.82
12949;BME280;6539;49.476;8.484;2023-05-19T07:10:08;101129.84;;;20.39;35.52
12949;BME280;6539;49.476;8.484;2023-05-19T07:12:34;101124.88;;;20.65;35.18
12949;BME280;6539;49.476;8.484;2023-05-19T07:15:00;101118.41;;;20.77;34.62
12949;BME280;6539;49.476;8.484;2023-05-19T07:17:26;101117.19;;;20.78;34.55
12949;BME280;6539;49.476;8.484;2023-05-19T07:19:54;101110.41;;;20.88;34.49
12949;BME280;6539;49.476;8.484;2023-05-19T07:22:24;101115.78;;;21.04;34.19
12949;BME280;6539;49.476;8.484;2023-05-19T07:24:52;101116.50;;;20.96;34.39
12949;BME280;6539;49.476;8.484;2023-05-19T07:27:18;101108.94;;;21.05;34.69
12949;BME280;6539;49.476;8.484;2023-05-19T07:29:43;101103.44;;;21.23;33.93
12949;BME280;6539;49.476;8.484;2023-05-19T07:32:11;101101.28;;;21.27;33.93
12949;BME280;6539;49.476;8.484;2023-05-19T07:34:37;101103.47;;;21.42;33.71
12949;BME280;6539;49.476;8.484;2023-05-19T07:37:05;101098.09;;;21.56;33.53
12949;BME280;6539;49.476;8.484;2023-05-19T07:39:34;101099.16;;;21.68;33.33
12949;BME280;6539;49.476;8.484;2023-05-19T07:42:00;101093.75;;;21.73;33.28
12949;BME280;6539;49.476;8.484;2023-05-19T07:44:28;101090.22;;;21.91;32.90
12949;BME280;6539;49.476;8.484;2023-05-19T07:46:58;101097.66;;;22.03;32.60
12949;BME280;6539;49.476;8.484;2023-05-19T07:49:26;101094.25;;;22.08;32.51
12949;BME280;6539;49.476;8.484;2023-05-19T07:51:52;101084.41;;;22.22;31.87
12949;BME280;6539;49.476;8.484;2023-05-19T07:54:19;101089.53;;;22.32;32.10
12949;BME280;6539;49.476;8.484;2023-05-19T07:56:44;101084.34;;;22.58;31.52
12949;BME280;6539;49.476;8.484;2023-05-19T07:59:16;101077.63;;;22.73;31.63
12949;BME280;6539;49.476;8.484;2023-05-19T08:01:44;101074.69;;;22.68;31.44
12949;BME280;6539;49.476;8.484;2023-05-19T08:04:13;101073.16;;;23.00;31.06
12949;BME280;6539;49.476;8.484;2023-05-19T08:06:38;101082.41;;;23.15;30.74
12949;BME280;6539;49.476;8.484;2023-05-19T08:09:09;101079.09;;;23.25;29.95
12949;BME280;6539;49.476;8.484;2023-05-19T08:11:36;101086.06;;;23.30;29.88
12949;BME280;6539;49.476;8.484;2023-05-19T08:14:04;101084.19;;;23.36;29.47
12949;BME280;6539;49.476;8.484;2023-05-19T08:16:30;101076.44;;;23.31;29.71
12949;BME280;6539;49.476;8.484;2023-05-19T08:18:56;101070.59;;;23.43;29.34
12949;BME280;6539;49.476;8.484;2023-05-19T08:21:24;101067.25;;;23.54;29.42
12949;BME280;6539;49.476;8.484;2023-05-19T08:23:49;101074.03;;;23.62;29.18
12949;BME280;6539;49.476;8.484;2023-05-19T08:26:15;101068.72;;;23.64;29.34
12949;BME280;6539;49.476;8.484;2023-05-19T08:28:43;101072.13;;;23.68;29.40
12949;BME280;6539;49.476;8.484;2023-05-19T08:31:14;101070.03;;;23.78;28.95
12949;BME280;6539;49.476;8.484;2023-05-19T08:33:43;101071.28;;;23.77;28.72
12949;BME280;6539;49.476;8.484;2023-05-19T08:36:09;101069.63;;;23.70;28.49
12949;BME280;6539;49.476;8.484;2023-05-19T08:38:39;101068.44;;;23.62;28.20
12949;BME280;6539;49.476;8.484;2023-05-19T08:41:05;101056.63;;;23.58;28.18
12949;BME280;6539;49.476;8.484;2023-05-19T08:43:31;101058.78;;;23.63;27.46
12949;BME280;6539;49.476;8.484;2023-05-19T08:46:05;101065.25;;;23.55;27.73
12949;BME280;6539;49.476;8.484;2023-05-19T08:48:34;101063.56;;;23.48;27.22
12949;BME280;6539;49.476;8.484;2023-05-19T08:51:23;101055.41;;;23.35;27.29
12949;BME280;6539;49.476;8.484;2023-05-19T08:53:56;101052.16;;;23.28;27.63
12949;BME280;6539;49.476;8.484;2023-05-19T08:56:25;101042.09;;;23.45;27.45
12949;BME280;6539;49.476;8.484;2023-05-19T08:58:55;101045.28;;;23.76;26.58
12949;BME280;6539;49.476;8.484;2023-05-19T09:01:25;101040.75;;;23.93;26.79
12949;BME280;6539;49.476;8.484;2023-05-19T09:03:57;101039.72;;;24.05;26.96
12949;BME280;6539;49.476;8.484;2023-05-19T09:06:25;101028.13;;;24.12;26.75
12949;BME280;6539;49.476;8.484;2023-05-19T09:08:52;101031.88;;;24.09;26.87
12949;BME280;6539;49.476;8.484;2023-05-19T09:11:20;101032.97;;;24.27;26.77
12949;BME280;6539;49.476;8.484;2023-05-19T09:13:49;101030.63;;;24.40;26.78
12949;BME280;6539;49.476;8.484;2023-05-19T09:16:18;101032.66;;;24.54;26.11
12949;BME280;6539;49.476;8.484;2023-05-19T09:18:59;101026.75;;;24.52;25.44
12949;BME280;6539;49.476;8.484;2023-05-19T09:21:32;101025.59;;;24.44;25.85
12949;BME280;6539;49.476;8.484;2023-05-19T09:24:04;101020.53;;;24.48;26.21
12949;BME280;6539;49.476;8.484;2023-05-19T09:26:41;101029.72;;;24.63;25.91
12949;BME280;6539;49.476;8.484;2023-05-19T09:31:37;101016.66;;;24.60;25.50
12949;BME280;6539;49.476;8.484;2023-05-19T09:34:04;101019.91;;;24.23;25.88
12949;BME280;6539;49.476;8.484;2023-05-19T09:36:39;101008.56;;;24.18;26.34
12949;BME280;6539;49.476;8.484;2023-05-19T09:39:15;101005.88;;;24.23;25.95
12949;BME280;6539;49.476;8.484;2023-05-19T09:41:41;101007.63;;;24.06;26.21
12949;BME280;6539;49.476;8.484;2023-05-19T09:44:24;101011.44;;;23.94;26.73
12949;BME280;6539;49.476;8.484;2023-05-19T09:46:55;101006.97;;;23.73;26.51
12949;BME280;6539;49.476;8.484;2023-05-19T09:49:27;101006.53;;;23.51;27.28
12949;BME280;6539;49.476;8.484;2023-05-19T09:51:57;101014.94;;;23.27;27.25
12949;BME280;6539;49.476;8.484;2023-05-19T09:54:24;101010.94;;;22.96;27.90
12949;BME280;6539;49.476;8.484;2023-05-19T09:57:03;100999.81;;;22.77;28.21
12949;BME280;6539;49.476;8.484;2023-05-19T09:59:35;101001.13;;;22.67;28.24
12949;BME280;6539;49.476;8.484;2023-05-19T10:02:04;100987.78;;;22.62;28.75
12949;BME280;6539;49.476;8.484;2023-05-19T10:04:30;100991.13;;;22.75;29.36
12949;BME280;6539;49.476;8.484;2023-05-19T10:06:57;101003.19;;;22.91;30.15
12949;BME280;6539;49.476;8.484;2023-05-19T10:09:32;100995.38;;;23.18;29.51
12949;BME280;6539;49.476;8.484;2023-05-19T10:12:04;100988.06;;;23.21;29.85
12949;BME280;6539;49.476;8.484;2023-05-19T10:14:31;100987.75;;;23.19;30.57
12949;BME280;6539;49.476;8.484;2023-05-19T10:16:58;100981.38;;;23.18;30.05
12949;BME280;6539;49.476;8.484;2023-05-19T10:19:26;100991.28;;;23.28;29.46
12949;BME280;6539;49.476;8.484;2023-05-19T10:21:53;100987.38;;;23.35;28.67
12949;BME280;6539;49.476;8.484;2023-05-19T10:24:19;100992.00;;;23.38;28.19
12949;BME280;6539;49.476;8.484;2023-05-19T10:27:10;100993.34;;;23.19;28.49
12949;BME280;6539;49.476;8.484;2023-05-19T10:29:48;100986.81;;;23.22;28.83
12949;BME280;6539;49.476;8.484;2023-05-19T10:32:30;100974.44;;;23.37;28.71
12949;BME280;6539;49.476;8.484;2023-05-19T10:37:58;100972.00;;;23.21;28.11
12949;BME280;6539;49.476;8.484;2023-05-19T10:40:36;100967.91;;;23.08;28.59
12949;BME280;6539;49.476;8.484;2023-05-19T10:45:59;100974.63;;;23.25;28.69
12949;BME280;6539;49.476;8.484;2023-05-19T10:48:33;100971.44;;;23.17;28.13
12949;BME280;6539;49.476;8.484;2023-05-19T10:51:01;100964.69;;;23.24;28.51
12949;BME280;6539;49.476;8.484;2023-05-19T10:53:32;100972.09;;;23.36;28.38
12949;BME280;6539;49.476;8.484;2023-05-19T10:56:01;100970.38;;;23.53;28.10
12949;BME280;6539;49.476;8.484;2023-05-19T11:01:16;100953.03;;;23.93;27.73
12949;BME280;6539;49.476;8.484;2023-05-19T11:03:53;100957.78;;;24.16;27.53
12949;BME280;6539;49.476;8.484;2023-05-19T11:06:31;100948.41;;;24.04;26.87
12949;BME280;6539;49.476;8.484;2023-05-19T11:09:00;100957.75;;;24.01;27.76
12949;BME280;6539;49.476;8.484;2023-05-19T11:11:52;100952.06;;;23.96;27.81
12949;BME280;6539;49.476;8.484;2023-05-19T11:14:26;100948.84;;;24.03;27.76
12949;BME280;6539;49.476;8.484;2023-05-19T11:16:59;100945.69;;;24.10;28.01
12949;BME280;6539;49.476;8.484;2023-05-19T11:19:29;100942.25;;;24.35;27.41
12949;BME280;6539;49.476;8.484;2023-05-19T11:22:06;100931.44;;;24.63;27.95
12949;BME280;6539;49.476;8.484;2023-05-19T11:24:39;100938.16;;;24.85;27.13
12949;BME280;6539;49.476;8.484;2023-05-19T11:27:32;100937.31;;;24.79;26.77
12949;BME280;6539;49.476;8.484;2023-05-19T11:32:34;100941.38;;;24.44;26.87
12949;BME280;6539;49.476;8.484;2023-05-19T11:35:03;100934.38;;;24.54;26.28
12949;BME280;6539;49.476;8.484;2023-05-19T11:37:31;100933.84;;;24.70;26.24
12949;BME280;6539;49.476;8.484;2023-05-19T11:40:06;100944.88;;;24.73;26.18
12949;BME280;6539;49.476;8.484;2023-05-19T11:42:35;100936.25;;;24.77;26.16
12949;BME280;6539;49.476;8.484;2023-05-19T11:45:02;100938.88;;;24.66;26.05
12949;BME280;6539;49.476;8.484;2023-05-19T11:47:30;100944.63;;;24.57;26.10
12949;BME280;6539;49.476;8.484;2023-05-19T11:49:59;100943.72;;;24.31;26.56
12949;BME280;6539;49.476;8.484;2023-05-19T11:52:25;100930.41;;;24.11;27.07
12949;BME280;6539;49.476;8.484;2023-05-19T11:54:55;100934.47;;;23.95;27.38
12949;BME280;6539;49.476;8.484;2023-05-19T11:57:25;100929.81;;;23.92;27.65
12949;BME280;6539;49.476;8.484;2023-05-19T11:59:50;100927.19;;;23.89;28.37
12949;BME280;6539;49.476;8.484;2023-05-19T12:04:48;100931.53;;;23.90;28.44
12949;BME280;6539;49.476;8.484;2023-05-19T12:07:19;100927.97;;;23.75;28.71
12949;BME280;6539;49.476;8.484;2023-05-19T12:09:50;100934.22;;;23.55;28.74
12949;BME280;6539;49.476;8.484;2023-05-19T12:12:19;100932.41;;;23.52;28.87
12949;BME280;6539;49.476;8.484;2023-05-19T12:14:50;100922.06;;;23.58;28.55
12949;BME280;6539;49.476;8.484;2023-05-19T12:17:20;100923.63;;;23.59;28.75
12949;BME280;6539;49.476;8.484;2023-05-19T12:19:51;100930.28;;;23.62;28.66
12949;BME280;6539;49.476;8.484;2023-05-19T12:22:19;100921.97;;;23.67;28.85
12949;BME280;6539;49.476;8.484;2023-05-19T12:24:51;100939.09;;;23.69;28.74
12949;BME280;6539;49.476;8.484;2023-05-19T12:27:18;100926.88;;;23.72;28.57
12949;BME280;6539;49.476;8.484;2023-05-19T12:29:51;100917.63;;;23.66;28.44
12949;BME280;6539;49.476;8.484;2023-05-19T12:32:27;100914.06;;;23.66;28.56
12949;BME280;6539;49.476;8.484;2023-05-19T12:34:55;100920.25;;;23.70;28.88
12949;BME280;6539;49.476;8.484;2023-05-19T12:37:30;100906.47;;;23.57;28.86
12949;BME280;6539;49.476;8.484;2023-05-19T12:39:58;100913.28;;;23.51;29.12
12949;BME280;6539;49.476;8.484;2023-05-19T12:42:28;100913.72;;;23.49;29.19
12949;BME280;6539;49.476;8.484;2023-05-19T12:45:01;100911.63;;;23.44;29.29
12949;BME280;6539;49.476;8.484;2023-05-19T12:47:34;100911.91;;;23.46;29.33
12949;BME280;6539;49.476;8.484;2023-05-19T12:50:06;100906.00;;;23.44;29.70
12949;BME280;6539;49.476;8.484;2023-05-19T12:52:47;100910.28;;;23.54;29.77
12949;BME280;6539;49.476;8.484;2023-05-19T12:55:15;100897.41;;;23.47;29.80
12949;BME280;6539;49.476;8.484;2023-05-19T12:57:46;100918.97;;;23.41;30.11
12949;BME280;6539;49.476;8.484;2023-05-19T13:00:19;100913.97;;;23.22;30.25
12949;BME280;6539;49.476;8.484;2023-05-19T13:03:04;100903.78;;;23.10;30.60
12949;BME280;6539;49.476;8.484;2023-05-19T13:05:38;100906.56;;;23.10;30.75
12949;BME280;6539;49.476;8.484;2023-05-19T13:08:23;100902.31;;;23.00;30.83
12949;BME280;6539;49.476;8.484;2023-05-19T13:10:54;100906.81;;;22.97;30.87
12949;BME280;6539;49.476;8.484;2023-05-19T13:13:20;100911.78;;;22.79;30.93
12949;BME280;6539;49.476;8.484;2023-05-19T13:15:46;100912.06;;;22.57;31.36
12949;BME280;6539;49.476;8.484;2023-05-19T13:18:18;100908.34;;;22.51;31.44
12949;BME280;6539;49.476;8.484;2023-05-19T13:20:47;100901.13;;;22.35;32.14
12949;BME280;6539;49.476;8.484;2023-05-19T13:23:15;100912.09;;;22.15;32.27
12949;BME280;6539;49.476;8.484;2023-05-19T13:25:41;100905.59;;;22.09;32.30
12949;BME280;6539;49.476;8.484;2023-05-19T13:28:10;100900.78;;;22.10;32.52
12949;BME280;6539;49.476;8.484;2023-05-19T13:30:38;100904.81;;;22.09;32.87
12949;BME280;6539;49.476;8.484;2023-05-19T13:33:04;100901.69;;;22.16;32.78
12949;BME280;6539;49.476;8.484;2023-05-19T13:35:30;100893.97;;;22.02;32.71
12949;BME280;6539;49.476;8.484;2023-05-19T13:38:10;100908.47;;;21.91;33.03
12949;BME280;6539;49.476;8.484;2023-05-19T13:40:36;100906.13;;;21.80;33.23
12949;BME280;6539;49.476;8.484;2023-05-19T13:43:03;100897.13;;;21.76;33.53
12949;BME280;6539;49.476;8.484;2023-05-19T13:45:29;100894.50;;;21.73;33.82